sensor_id;sensor_type;location;lat;lon;timestamp;pressure;altitude;pressure_sealevel;temperature
14784;BMP180;7483;50.498;12.138;2022-08-03T00:02:16;231333.00;;;226.50
14784;BMP180;7483;50.498;12.138;2022-08-03T00:04:44;231333.00;;;226.50
14784;BMP180;7483;50.498;12.138;2022-08-03T00:07:12;231333.00;;;226.50
14784;BMP180;7483;50.498;12.138;2022-08-03T00:09:42;231333.00;;;226.50
14784;BMP180;7483;50.498;12.138;2022-08-03T00:12:10;231333.00;;;226.50
14784;BMP180;7483;50.498;12.138;2022-08-03T00:14:38;231333.00;;;226.50
14784;BMP180;7483;50.498;12.138;2022-08-03T00:17:07;231333.00;;;226.50
14784;BMP180;7483;50.498;12.138;2022-08-03T00:19:35;231333.00;;;226.50
14784;BMP180;7483;50.498;12.138;2022-08-03T00:22:03;231333.00;;;226.50
14784;BMP180;7483;50.498;12.138;2022-08-03T00:24:30;231333.00;;;226.50
14784;BMP180;7483;50.498;12.138;2022-08-03T00:27:01;231333.00;;;226.50
14784;BMP180;7483;50.498;12.138;2022-08-03T00:29:29;231333.00;;;226.50
14784;BMP180;7483;50.498;12.138;2022-08-03T00:31:56;231333.00;;;226.50
14784;BMP180;7483;50.498;12.138;2022-08-03T00:34:26;231333.00;;;226.50
14784;BMP180;7483;50.498;12.138;2022-08-03T00:37:14;231333.00;;;226.50
14784;BMP180;7483;50.498;12.138;2022-08-03T00:39:42;231333.00;;;226.50
14784;BMP180;7483;50.498;12.138;2022-08-03T00:42:14;231333.00;;;226.50
14784;BMP180;7483;50.498;12.138;2022-08-03T00:44:44;231333.00;;;226.50
14784;BMP180;7483;50.498;12.138;2022-08-03T00:47:12;231333.00;;;226.50
14784;BMP180;7483;50.498;12.138;2022-08-03T00:49:40;231333.00;;;226.50
14784;BMP180;7483;50.498;12.138;2022-08-03T00:52:10;231333.00;;;226.50
14784;BMP180;7483;50.498;12.138;2022-08-03T00:54:38;231333.00;;;226.50
14784;BMP180;7483;50.498;12.138;2022-08-03T00:57:07;231333.00;;;226.50
14784;BMP180;7483;50.498;12.138;2022-08-03T00:59:37;231333.00;;;226.50
14784;BMP180;7483;50.498;12.138;2022-08-03T01:02:05;231333.00;;;226.50
14784;BMP180;7483;50.498;12.138;2022-08-03T01:04:33;231333.00;;;226.50
14784;BMP180;7483;50.498;12.138;2022-08-03T01:07:11;231333.00;;;226.50
14784;BMP180;7483;50.498;12.138;2022-08-03T01:09:54;231333.00;;;226.50
14784;BMP180;7483;50.498;12.138;2022-08-03T01:12:34;231333.00;;;226.50
14784;BMP180;7483;50.498;12.138;2022-08-03T01:15:12;231333.00;;;226.50
14784;BMP180;7483;50.498;12.138;2022-08-03T01:17:50;231333.00;;;226.50
14784;BMP180;7483;50.498;12.138;2022-08-03T01:20:23;231333.00;;;226.50
14784;BMP180;7483;50.498;12.138;2022-08-03T01:23:12;231333.00;;;226.50
14784;BMP180;7483;50.498;12.138;2022-08-03T01:26:05;231333.00;;;226.50
14784;BMP180;7483;50.498;12.138;2022-08-03T01:28:57;231333.00;;;226.50
14784;BMP180;7483;50.498;12.138;2022-08-03T01:31:37;231333.00;;;226.50
14784;BMP180;7483;50.498;12.138;2022-08-03T01:34:31;231333.00;;;226.50
14784;BMP180;7483;50.498;12.138;2022-08-03T01:37:05;231333.00;;;226.50
14784;BMP180;7483;50.498;12.138;2022-08-03T01:39:36;231333.00;;;226.50
14784;BMP180;7483;50.498;12.138;2022-08-03T01:42:07;231333.00;;;226.50
14784;BMP180;7483;50.498;12.138;2022-08-03T01:44:41;231333.00;;;226.50
14784;BMP180;7483;50.498;12.138;2022-08-03T01:47:13;231333.00;;;226.50
14784;BMP180;7483;50.498;12.138;2022-08-03T01:49:44;231333.00;;;226.50
14784;BMP180;7483;50.498;12.138;2022-08-03T01:52:17;231333.00;;;226.50
14784;BMP180;7483;50.498;12.138;2022-08-03T01:54:49;231333.00;;;226.50
14784;BMP180;7483;50.498;12.138;2022-08-03T01:57:19;231333.00;;;226.50
14784;BMP180;7483;50.498;12.138;2022-08-03T01:59:51;231333.00;;;226.50
14784;BMP180;7483;50.498;12.138;2022-08-03T02:02:21;231333.00;;;226.50
14784;BMP180;7483;50.498;12.138;2022-08-03T02:05:02;231333.00;;;226.50
14784;BMP180;7483;50.498;12.138;2022-08-03T02:07:39;231333.00;;;226.50
14784;BMP180;7483;50.498;12.138;2022-08-03T02:10:10;231333.00;;;226.50
14784;BMP180;7483;50.498;12.138;2022-08-03T02:12:43;231333.00;;;226.50
14784;BMP180;7483;50.498;12.138;2022-08-03T02:15:15;231333.00;;;226.50
14784;BMP180;7483;50.498;12.138;2022-08-03T02:17:47;231333.00;;;226.50
14784;BMP180;7483;50.498;12.138;2022-08-03T02:20:16;231333.00;;;226.50
14784;BMP180;7483;50.498;12.138;2022-08-03T02:22:46;231333.00;;;226.50
14784;BMP180;7483;50.498;12.138;2022-08-03T02:25:15;231333.00;;;226.50
14784;BMP180;7483;50.498;12.138;2022-08-03T02:27:51;231333.00;;;226.50
14784;BMP180;7483;50.498;12.138;2022-08-03T02:30:30;231333.00;;;226.50
14784;BMP180;7483;50.498;12.138;2022-08-03T02:33:01;231333.00;;;226.50
14784;BMP180;7483;50.498;12.138;2022-08-03T02:35:32;231333.00;;;226.50
14784;BMP180;7483;50.498;12.138;2022-08-03T02:38:06;231333.00;;;226.50
14784;BMP180;7483;50.498;12.138;2022-08-03T02:40:36;231333.00;;;226.50
14784;BMP180;7483;50.498;12.138;2022-08-03T02:43:10;231333.00;;;226.50
14784;BMP180;7483;50.498;12.138;2022-08-03T02:45:45;231333.00;;;226.50
14784;BMP180;7483;50.498;12.138;2022-08-03T02:48:19;231333.00;;;226.50
14784;BMP180;7483;50.498;12.138;2022-08-03T02:50:52;231333.00;;;226.50
14784;BMP180;7483;50.498;12.138;2022-08-03T02:53:21;231333.00;;;226.50
14784;BMP180;7483;50.498;12.138;2022-08-03T02:55:52;231333.00;;;226.50
14784;BMP180;7483;50.498;12.138;2022-08-03T02:58:23;231333.00;;;226.50
14784;BMP180;7483;50.498;12.138;2022-08-03T03:00:53;231333.00;;;226.50
14784;BMP180;7483;50.498;12.138;2022-08-03T03:03:25;231333.00;;;226.50
14784;BMP180;7483;50.498;12.138;2022-08-03T03:05:56;231333.00;;;226.50
14784;BMP180;7483;50.498;12.138;2022-08-03T03:08:26;231333.00;;;226.50
14784;BMP180;7483;50.498;12.138;2022-08-03T03:10:57;231333.00;;;226.50
14784;BMP180;7483;50.498;12.138;2022-08-03T03:13:27;231333.00;;;226.50
14784;BMP180;7483;50.498;12.138;2022-08-03T03:16:00;231333.00;;;226.50
14784;BMP180;7483;50.498;12.138;2022-08-03T03:18:32;231333.00;;;226.50
14784;BMP180;7483;50.498;12.138;2022-08-03T03:21:03;231333.00;;;226.50
14784;BMP180;7483;50.498;12.138;2022-08-03T03:23:35;231333.00;;;226.50
14784;BMP180;7483;50.498;12.138;2022-08-03T03:26:05;231333.00;;;226.50
14784;BMP180;7483;50.498;12.138;2022-08-03T03:28:36;231333.00;;;226.50
14784;BMP180;7483;50.498;12.138;2022-08-03T03:31:05;231333.00;;;226.50
14784;BMP180;7483;50.498;12.138;2022-08-03T03:33:36;231333.00;;;226.50
14784;BMP180;7483;50.498;12.138;2022-08-03T03:36:05;231333.00;;;226.50
14784;BMP180;7483;50.498;12.138;2022-08-03T03:38:34;231333.00;;;226.50
14784;BMP180;7483;50.498;12.138;2022-08-03T03:41:03;231333.00;;;226.50
14784;BMP180;7483;50.498;12.138;2022-08-03T03:43:31;231333.00;;;226.50
14784;BMP180;7483;50.498;12.138;2022-08-03T03:46:00;231333.00;;;226.50
14784;BMP180;7483;50.498;12.138;2022-08-03T03:48:28;231333.00;;;226.50
14784;BMP180;7483;50.498;12.138;2022-08-03T03:51:00;231333.00;;;226.50
14784;BMP180;7483;50.498;12.138;2022-08-03T03:53:28;231333.00;;;226.50
14784;BMP180;7483;50.498;12.138;2022-08-03T03:55:56;231333.00;;;226.50
14784;BMP180;7483;50.498;12.138;2022-08-03T03:58:31;231333.00;;;226.50
14784;BMP180;7483;50.498;12.138;2022-08-03T04:00:59;231333.00;;;226.50
14784;BMP180;7483;50.498;12.138;2022-08-03T04:03:27;231333.00;;;226.50
14784;BMP180;7483;50.498;12.138;2022-08-03T04:05:56;231333.00;;;226.50
14784;BMP180;7483;50.498;12.138;2022-08-03T04:08:44;231333.00;;;226.50
14784;BMP180;7483;50.498;12.138;2022-08-03T04:11:37;231333.00;;;226.50
14784;BMP180;7483;50.498;12.138;2022-08-03T04:14:12;231333.00;;;226.50
14784;BMP180;7483;50.498;12.138;2022-08-03T04:16:46;231333.00;;;226.50
14784;BMP180;7483;50.498;12.138;2022-08-03T04:19:24;231333.00;;;226.50
14784;BMP180;7483;50.498;12.138;2022-08-03T04:21:58;231333.00;;;226.50
14784;BMP180;7483;50.498;12.138;2022-08-03T04:24:33;231333.00;;;226.50
14784;BMP180;7483;50.498;12.138;2022-08-03T04:27:06;231333.00;;;226.50
14784;BMP180;7483;50.498;12.138;2022-08-03T04:29:41;231333.00;;;226.50
14784;BMP180;7483;50.498;12.138;2022-08-03T04:32:15;231333.00;;;226.50
14784;BMP180;7483;50.498;12.138;2022-08-03T04:34:44;231333.00;;;226.50
14784;BMP180;7483;50.498;12.138;2022-08-03T04:37:21;231333.00;;;226.50
14784;BMP180;7483;50.498;12.138;2022-08-03T04:39:53;231333.00;;;226.50
14784;BMP180;7483;50.498;12.138;2022-08-03T04:42:24;231333.00;;;226.50
14784;BMP180;7483;50.498;12.138;2022-08-03T04:44:55;231333.00;;;226.50
14784;BMP180;7483;50.498;12.138;2022-08-03T04:47:29;231333.00;;;226.50
14784;BMP180;7483;50.498;12.138;2022-08-03T04:50:00;231333.00;;;226.50
14784;BMP180;7483;50.498;12.138;2022-08-03T04:52:29;231333.00;;;226.50
14784;BMP180;7483;50.498;12.138;2022-08-03T04:54:58;231333.00;;;226.50
14784;BMP180;7483;50.498;12.138;2022-08-03T04:57:26;231333.00;;;226.50
14784;BMP180;7483;50.498;12.138;2022-08-03T04:59:54;231333.00;;;226.50
14784;BMP180;7483;50.498;12.138;2022-08-03T05:02:30;231333.00;;;226.50
14784;BMP180;7483;50.498;12.138;2022-08-03T05:04:58;231333.00;;;226.50
14784;BMP180;7483;50.498;12.138;2022-08-03T05:07:27;231333.00;;;226.50
14784;BMP180;7483;50.498;12.138;2022-08-03T05:10:07;231333.00;;;226.50
14784;BMP180;7483;50.498;12.138;2022-08-03T05:12:44;231333.00;;;226.50
14784;BMP180;7483;50.498;12.138;2022-08-03T05:15:12;231333.00;;;226.50
14784;BMP180;7483;50.498;12.138;2022-08-03T05:17:41;231333.00;;;226.50
14784;BMP180;7483;50.498;12.138;2022-08-03T05:20:10;231333.00;;;226.50
14784;BMP180;7483;50.498;12.138;2022-08-03T05:22:42;231333.00;;;226.50
14784;BMP180;7483;50.498;12.138;2022-08-03T05:25:11;231333.00;;;226.50
14784;BMP180;7483;50.498;12.138;2022-08-03T05:27:45;231333.00;;;226.50
14784;BMP180;7483;50.498;12.138;2022-08-03T05:30:16;231333.00;;;226.50
14784;BMP180;7483;50.498;12.138;2022-08-03T05:32:59;231333.00;;;226.50
14784;BMP180;7483;50.498;12.138;2022-08-03T05:35:27;231333.00;;;226.50
14784;BMP180;7483;50.498;12.138;2022-08-03T05:38:15;231333.00;;;226.50
14784;BMP180;7483;50.498;12.138;2022-08-03T05:40:56;231333.00;;;226.50
14784;BMP180;7483;50.498;12.138;2022-08-03T05:43:45;231333.00;;;226.50
14784;BMP180;7483;50.498;12.138;2022-08-03T05:46:13;231333.00;;;226.50
14784;BMP180;7483;50.498;12.138;2022-08-03T05:48:42;231333.00;;;226.50
14784;BMP180;7483;50.498;12.138;2022-08-03T05:51:10;231333.00;;;226.50
14784;BMP180;7483;50.498;12.138;2022-08-03T05:53:39;231333.00;;;226.50
14784;BMP180;7483;50.498;12.138;2022-08-03T05:56:09;231333.00;;;226.50
14784;BMP180;7483;50.498;12.138;2022-08-03T05:58:41;231333.00;;;226.50
14784;BMP180;7483;50.498;12.138;2022-08-03T06:01:09;231333.00;;;226.50
14784;BMP180;7483;50.498;12.138;2022-08-03T06:03:37;231333.00;;;226.50
14784;BMP180;7483;50.498;12.138;2022-08-03T06:06:05;231333.00;;;226.50
14784;BMP180;7483;50.498;12.138;2022-08-03T06:08:34;231333.00;;;226.50
14784;BMP180;7483;50.498;12.138;2022-08-03T06:11:02;231333.00;;;226.50
14784;BMP180;7483;50.498;12.138;2022-08-03T06:13:32;231333.00;;;226.50
14784;BMP180;7483;50.498;12.138;2022-08-03T06:16:00;231333.00;;;226.50
14784;BMP180;7483;50.498;12.138;2022-08-03T06:18:27;231333.00;;;226.50
14784;BMP180;7483;50.498;12.138;2022-08-03T06:20:55;231333.00;;;226.50
14784;BMP180;7483;50.498;12.138;2022-08-03T06:23:44;231333.00;;;226.50
14784;BMP180;7483;50.498;12.138;2022-08-03T06:26:23;231333.00;;;226.50
14784;BMP180;7483;50.498;12.138;2022-08-03T06:28:53;231333.00;;;226.50
14784;BMP180;7483;50.498;12.138;2022-08-03T06:31:23;231333.00;;;226.50
14784;BMP180;7483;50.498;12.138;2022-08-03T06:34:01;231333.00;;;226.50
14784;BMP180;7483;50.498;12.138;2022-08-03T06:36:49;231333.00;;;226.50
14784;BMP180;7483;50.498;12.138;2022-08-03T06:39:19;231333.00;;;226.50
14784;BMP180;7483;50.498;12.138;2022-08-03T06:41:51;231333.00;;;226.50
14784;BMP180;7483;50.498;12.138;2022-08-03T06:44:21;231333.00;;;226.50
14784;BMP180;7483;50.498;12.138;2022-08-03T06:46:49;231333.00;;;226.50
14784;BMP180;7483;50.498;12.138;2022-08-03T06:49:17;231333.00;;;226.50
14784;BMP180;7483;50.498;12.138;2022-08-03T06:51:45;231333.00;;;226.50
14784;BMP180;7483;50.498;12.138;2022-08-03T06:54:33;231333.00;;;226.50
14784;BMP180;7483;50.498;12.138;2022-08-03T06:57:02;231333.00;;;226.50
14784;BMP180;7483;50.498;12.138;2022-08-03T06:59:31;231333.00;;;226.50
14784;BMP180;7483;50.498;12.138;2022-08-03T07:02:19;231333.00;;;226.50
14784;BMP180;7483;50.498;12.138;2022-08-03T07:04:48;231333.00;;;226.50
14784;BMP180;7483;50.498;12.138;2022-08-03T07:07:16;231333.00;;;226.50
14784;BMP180;7483;50.498;12.138;2022-08-03T07:09:45;231333.00;;;226.50
14784;BMP180;7483;50.498;12.138;2022-08-03T07:12:25;231333.00;;;226.50
14784;BMP180;7483;50.498;12.138;2022-08-03T07:14:55;231333.00;;;226.50
14784;BMP180;7483;50.498;12.138;2022-08-03T07:17:28;231333.00;;;226.50
14784;BMP180;7483;50.498;12.138;2022-08-03T07:19:57;231333.00;;;226.50
14784;BMP180;7483;50.498;12.138;2022-08-03T07:22:25;231333.00;;;226.50
14784;BMP180;7483;50.498;12.138;2022-08-03T07:24:54;231333.00;;;226.50
14784;BMP180;7483;50.498;12.138;2022-08-03T07:27:23;231333.00;;;226.50
14784;BMP180;7483;50.498;12.138;2022-08-03T07:29:52;231333.00;;;226.50
14784;BMP180;7483;50.498;12.138;2022-08-03T07:32:23;231333.00;;;226.50
14784;BMP180;7483;50.498;12.138;2022-08-03T07:34:51;231333.00;;;226.50
14784;BMP180;7483;50.498;12.138;2022-08-03T07:37:26;231333.00;;;226.50
14784;BMP180;7483;50.498;12.138;2022-08-03T07:39:54;231333.00;;;226.50
14784;BMP180;7483;50.498;12.138;2022-08-03T07:42:22;231333.00;;;226.50
14784;BMP180;7483;50.498;12.138;2022-08-03T07:44:50;231333.00;;;226.50
14784;BMP180;7483;50.498;12.138;2022-08-03T07:47:19;231333.00;;;226.50
14784;BMP180;7483;50.498;12.138;2022-08-03T07:49:50;231333.00;;;226.50
14784;BMP180;7483;50.498;12.138;2022-08-03T07:52:18;231333.00;;;226.50
14784;BMP180;7483;50.498;12.138;2022-08-03T07:55:05;231333.00;;;226.50
14784;BMP180;7483;50.498;12.138;2022-08-03T07:57:34;231333.00;;;226.50
14784;BMP180;7483;50.498;12.138;2022-08-03T08:00:05;231333.00;;;226.50
14784;BMP180;7483;50.498;12.138;2022-08-03T08:02:41;231333.00;;;226.50
14784;BMP180;7483;50.498;12.138;2022-08-03T08:05:11;231333.00;;;226.50
14784;BMP180;7483;50.498;12.138;2022-08-03T08:07:39;231333.00;;;226.50
14784;BMP180;7483;50.498;12.138;2022-08-03T08:10:09;231333.00;;;226.50
14784;BMP180;7483;50.498;12.138;2022-08-03T08:12:39;231333.00;;;226.50
14784;BMP180;7483;50.498;12.138;2022-08-03T08:15:08;231333.00;;;226.50
14784;BMP180;7483;50.498;12.138;2022-08-03T08:17:44;231333.00;;;226.50
14784;BMP180;7483;50.498;12.138;2022-08-03T08:20:18;231333.00;;;226.50
14784;BMP180;7483;50.498;12.138;2022-08-03T08:22:58;231333.00;;;226.50
14784;BMP180;7483;50.498;12.138;2022-08-03T08:25:29;231333.00;;;226.50
14784;BMP180;7483;50.498;12.138;2022-08-03T08:27:59;231333.00;;;226.50
14784;BMP180;7483;50.498;12.138;2022-08-03T08:30:48;231333.00;;;226.50
14784;BMP180;7483;50.498;12.138;2022-08-03T08:33:16;231333.00;;;226.50
14784;BMP180;7483;50.498;12.138;2022-08-03T08:35:52;231333.00;;;226.50
14784;BMP180;7483;50.498;12.138;2022-08-03T08:38:21;231333.00;;;226.50
14784;BMP180;7483;50.498;12.138;2022-08-03T08:40:49;231333.00;;;226.50
14784;BMP180;7483;50.498;12.138;2022-08-03T08:43:17;231333.00;;;226.50
14784;BMP180;7483;50.498;12.138;2022-08-03T08:45:48;231333.00;;;226.50
14784;BMP180;7483;50.498;12.138;2022-08-03T08:48:20;231333.00;;;226.50
14784;BMP180;7483;50.498;12.138;2022-08-03T08:50:54;231333.00;;;226.50
14784;BMP180;7483;50.498;12.138;2022-08-03T08:53:28;231333.00;;;226.50
14784;BMP180;7483;50.498;12.138;2022-08-03T08:56:01;231333.00;;;226.50
14784;BMP180;7483;50.498;12.138;2022-08-03T08:58:33;231333.00;;;226.50
14784;BMP180;7483;50.498;12.138;2022-08-03T09:01:04;231333.00;;;226.50
14784;BMP180;7483;50.498;12.138;2022-08-03T09:03:32;231333.00;;;226.50
14784;BMP180;7483;50.498;12.138;2022-08-03T09:06:03;231333.00;;;226.50
14784;BMP180;7483;50.498;12.138;2022-08-03T09:08:32;231333.00;;;226.50
14784;BMP180;7483;50.498;12.138;2022-08-03T09:11:00;231333.00;;;226.50
14784;BMP180;7483;50.498;12.138;2022-08-03T09:13:29;231333.00;;;226.50
14784;BMP180;7483;50.498;12.138;2022-08-03T09:16:13;231333.00;;;226.50
14784;BMP180;7483;50.498;12.138;2022-08-03T09:18:43;231333.00;;;226.50
14784;BMP180;7483;50.498;12.138;2022-08-03T09:21:16;231333.00;;;226.50
14784;BMP180;7483;50.498;12.138;2022-08-03T09:24:04;231333.00;;;226.50
14784;BMP180;7483;50.498;12.138;2022-08-03T09:26:39;231333.00;;;226.50
14784;BMP180;7483;50.498;12.138;2022-08-03T09:29:09;231333.00;;;226.50
14784;BMP180;7483;50.498;12.138;2022-08-03T09:31:45;231333.00;;;226.50
14784;BMP180;7483;50.498;12.138;2022-08-03T09:34:14;231333.00;;;226.50
14784;BMP180;7483;50.498;12.138;2022-08-03T09:36:46;231333.00;;;226.50
14784;BMP180;7483;50.498;12.138;2022-08-03T09:39:16;231333.00;;;226.50
14784;BMP180;7483;50.498;12.138;2022-08-03T09:41:47;231333.00;;;226.50
14784;BMP180;7483;50.498;12.138;2022-08-03T09:44:17;231333.00;;;226.50
14784;BMP180;7483;50.498;12.138;2022-08-03T09:46:53;231333.00;;;226.50
14784;BMP180;7483;50.498;12.138;2022-08-03T09:49:23;231333.00;;;226.50
14784;BMP180;7483;50.498;12.138;2022-08-03T09:51:53;231333.00;;;226.50
14784;BMP180;7483;50.498;12.138;2022-08-03T09:54:42;231333.00;;;226.50
14784;BMP180;7483;50.498;12.138;2022-08-03T09:57:21;231333.00;;;226.50
14784;BMP180;7483;50.498;12.138;2022-08-03T09:59:50;231333.00;;;226.50
14784;BMP180;7483;50.498;12.138;2022-08-03T10:02:39;231333.00;;;226.50
14784;BMP180;7483;50.498;12.138;2022-08-03T10:05:10;231333.00;;;226.50
14784;BMP180;7483;50.498;12.138;2022-08-03T10:07:48;231333.00;;;226.50
14784;BMP180;7483;50.498;12.138;2022-08-03T10:10:17;231333.00;;;226.50
14784;BMP180;7483;50.498;12.138;2022-08-03T10:12:59;231333.00;;;226.50
14784;BMP180;7483;50.498;12.138;2022-08-03T10:15:28;231333.00;;;226.50
14784;BMP180;7483;50.498;12.138;2022-08-03T10:18:16;231333.00;;;226.50
14784;BMP180;7483;50.498;12.138;2022-08-03T10:20:50;231333.00;;;226.50
14784;BMP180;7483;50.498;12.138;2022-08-03T10:23:21;231333.00;;;226.50
14784;BMP180;7483;50.498;12.138;2022-08-03T10:26:00;231333.00;;;226.50
14784;BMP180;7483;50.498;12.138;2022-08-03T10:28:35;231333.00;;;226.50
14784;BMP180;7483;50.498;12.138;2022-08-03T10:31:13;231333.00;;;226.50
14784;BMP180;7483;50.498;12.138;2022-08-03T10:33:46;231333.00;;;226.50
14784;BMP180;7483;50.498;12.138;2022-08-03T10:36:23;231333.00;;;226.50
14784;BMP180;7483;50.498;12.138;2022-08-03T10:38:57;231333.00;;;226.50
14784;BMP180;7483;50.498;12.138;2022-08-03T10:41:31;231333.00;;;226.50
14784;BMP180;7483;50.498;12.138;2022-08-03T10:44:08;231333.00;;;226.50
14784;BMP180;7483;50.498;12.138;2022-08-03T10:46:39;231333.00;;;226.50
14784;BMP180;7483;50.498;12.138;2022-08-03T10:49:12;231333.00;;;226.50
14784;BMP180;7483;50.498;12.138;2022-08-03T10:51:43;231333.00;;;226.50
14784;BMP180;7483;50.498;12.138;2022-08-03T10:54:38;231333.00;;;226.50
14784;BMP180;7483;50.498;12.138;2022-08-03T10:57:46;231333.00;;;226.50
14784;BMP180;7483;50.498;12.138;2022-08-03T11:00:17;231333.00;;;226.50
14784;BMP180;7483;50.498;12.138;2022-08-03T11:03:09;231333.00;;;226.50
14784;BMP180;7483;50.498;12.138;2022-08-03T11:05:40;231333.00;;;226.50
14784;BMP180;7483;50.498;12.138;2022-08-03T11:08:31;231333.00;;;226.50
14784;BMP180;7483;50.498;12.138;2022-08-03T11:11:26;231333.00;;;226.50
14784;BMP180;7483;50.498;12.138;2022-08-03T11:14:01;231333.00;;;226.50
14784;BMP180;7483;50.498;12.138;2022-08-03T11:16:33;231333.00;;;226.50
14784;BMP180;7483;50.498;12.138;2022-08-03T11:19:04;231333.00;;;226.50
14784;BMP180;7483;50.498;12.138;2022-08-03T11:21:56;231333.00;;;226.50
14784;BMP180;7483;50.498;12.138;2022-08-03T11:24:59;231333.00;;;226.50
14784;BMP180;7483;50.498;12.138;2022-08-03T11:27:31;231333.00;;;226.50
14784;BMP180;7483;50.498;12.138;2022-08-03T11:30:04;231333.00;;;226.50
14784;BMP180;7483;50.498;12.138;2022-08-03T11:32:56;231333.00;;;226.50
14784;BMP180;7483;50.498;12.138;2022-08-03T11:35:27;231333.00;;;226.50
14784;BMP180;7483;50.498;12.138;2022-08-03T11:38:07;231333.00;;;226.50
14784;BMP180;7483;50.498;12.138;2022-08-03T11:40:42;96761.00;;;33.00
14784;BMP180;7483;50.498;12.138;2022-08-03T11:43:46;96808.00;;;33.20
14784;BMP180;7483;50.498;12.138;2022-08-03T11:46:15;96757.00;;;33.30
14784;BMP180;7483;50.498;12.138;2022-08-03T11:49:04;96776.00;;;33.70
14784;BMP180;7483;50.498;12.138;2022-08-03T11:51:37;96771.00;;;34.00
14784;BMP180;7483;50.498;12.138;2022-08-03T11:54:06;96768.00;;;33.80
14784;BMP180;7483;50.498;12.138;2022-08-03T11:56:46;96733.00;;;33.50
14784;BMP180;7483;50.498;12.138;2022-08-03T11:59:16;96745.00;;;33.70
14784;BMP180;7483;50.498;12.138;2022-08-03T12:01:48;96701.00;;;33.90
14784;BMP180;7483;50.498;12.138;2022-08-03T12:04:17;96763.00;;;34.10
14784;BMP180;7483;50.498;12.138;2022-08-03T12:06:58;96721.00;;;34.10
14784;BMP180;7483;50.498;12.138;2022-08-03T12:09:26;96743.00;;;34.20
14784;BMP180;7483;50.498;12.138;2022-08-03T12:11:54;96739.00;;;34.60
14784;BMP180;7483;50.498;12.138;2022-08-03T12:14:28;96735.00;;;34.70
14784;BMP180;7483;50.498;12.138;2022-08-03T12:17:16;96746.00;;;34.60
14784;BMP180;7483;50.498;12.138;2022-08-03T12:19:45;96705.00;;;34.70
14784;BMP180;7483;50.498;12.138;2022-08-03T12:22:13;96723.00;;;34.80
14784;BMP180;7483;50.498;12.138;2022-08-03T12:24:43;96704.00;;;34.60
14784;BMP180;7483;50.498;12.138;2022-08-03T12:27:24;96697.00;;;34.60
14784;BMP180;7483;50.498;12.138;2022-08-03T12:29:58;96733.00;;;34.70
14784;BMP180;7483;50.498;12.138;2022-08-03T12:32:29;173889.00;;;226.50
14784;BMP180;7483;50.498;12.138;2022-08-03T12:34:58;231333.00;;;226.50
14784;BMP180;7483;50.498;12.138;2022-08-03T12:37:29;231333.00;;;226.50
14784;BMP180;7483;50.498;12.138;2022-08-03T12:39:59;231333.00;;;226.50
14784;BMP180;7483;50.498;12.138;2022-08-03T12:42:38;231333.00;;;226.50
14784;BMP180;7483;50.498;12.138;2022-08-03T12:45:23;231333.00;;;226.50
14784;BMP180;7483;50.498;12.138;2022-08-03T12:47:56;231333.00;;;226.50
14784;BMP180;7483;50.498;12.138;2022-08-03T12:50:30;231333.00;;;226.50
14784;BMP180;7483;50.498;12.138;2022-08-03T12:53:00;231333.00;;;226.50
14784;BMP180;7483;50.498;12.138;2022-08-03T12:55:29;231333.00;;;226.50
14784;BMP180;7483;50.498;12.138;2022-08-03T12:58:31;96684.00;;;34.80
14784;BMP180;7483;50.498;12.138;2022-08-03T13:01:04;96666.00;;;34.40
14784;BMP180;7483;50.498;12.138;2022-08-03T13:03:41;96658.00;;;34.00
14784;BMP180;7483;50.498;12.138;2022-08-03T13:06:18;96666.00;;;34.00
14784;BMP180;7483;50.498;12.138;2022-08-03T13:08:48;173954.00;;;226.50
14784;BMP180;7483;50.498;12.138;2022-08-03T13:11:22;231333.00;;;226.50
14784;BMP180;7483;50.498;12.138;2022-08-03T13:14:11;231333.00;;;226.50
14784;BMP180;7483;50.498;12.138;2022-08-03T13:16:47;231333.00;;;226.50
14784;BMP180;7483;50.498;12.138;2022-08-03T13:19:15;231333.00;;;226.50
14784;BMP180;7483;50.498;12.138;2022-08-03T13:21:43;231333.00;;;226.50
14784;BMP180;7483;50.498;12.138;2022-08-03T13:24:31;231333.00;;;226.50
14784;BMP180;7483;50.498;12.138;2022-08-03T13:27:00;231333.00;;;226.50
14784;BMP180;7483;50.498;12.138;2022-08-03T13:29:48;231333.00;;;226.50
14784;BMP180;7483;50.498;12.138;2022-08-03T13:32:19;231333.00;;;226.50
14784;BMP180;7483;50.498;12.138;2022-08-03T13:34:47;231333.00;;;226.50
14784;BMP180;7483;50.498;12.138;2022-08-03T13:37:15;231333.00;;;226.50
14784;BMP180;7483;50.498;12.138;2022-08-03T13:39:43;231333.00;;;226.50
14784;BMP180;7483;50.498;12.138;2022-08-03T13:42:27;231333.00;;;226.50
14784;BMP180;7483;50.498;12.138;2022-08-03T13:44:56;231333.00;;;226.50
14784;BMP180;7483;50.498;12.138;2022-08-03T13:47:26;231333.00;;;226.50
14784;BMP180;7483;50.498;12.138;2022-08-03T13:49:54;231333.00;;;226.50
14784;BMP180;7483;50.498;12.138;2022-08-03T13:52:29;231333.00;;;226.50
14784;BMP180;7483;50.498;12.138;2022-08-03T13:54:58;231333.00;;;226.50
14784;BMP180;7483;50.498;12.138;2022-08-03T13:57:26;231333.00;;;226.50
14784;BMP180;7483;50.498;12.138;2022-08-03T14:00:16;231333.00;;;226.50
14784;BMP180;7483;50.498;12.138;2022-08-03T14:02:59;231333.00;;;226.50
14784;BMP180;7483;50.498;12.138;2022-08-03T14:05:40;231333.00;;;226.50
14784;BMP180;7483;50.498;12.138;2022-08-03T14:08:09;231333.00;;;226.50
14784;BMP180;7483;50.498;12.138;2022-08-03T14:10:40;231333.00;;;226.50
14784;BMP180;7483;50.498;12.138;2022-08-03T14:13:10;231333.00;;;226.50
14784;BMP180;7483;50.498;12.138;2022-08-03T14:15:45;231333.00;;;226.50
14784;BMP180;7483;50.498;12.138;2022-08-03T14:18:18;231333.00;;;226.50
14784;BMP180;7483;50.498;12.138;2022-08-03T14:21:01;231333.00;;;226.50
14784;BMP180;7483;50.498;12.138;2022-08-03T14:23:34;231333.00;;;226.50